Aviation Digital Data Service (ADDS)

Output produced by METARs form (1711 UTC 01 October 2016)
found at http://aviationweather.gov/adds/metars/
 
KMIV 011127Z 0112/0212 05010KT 4SM -DZ BR OVC005 
     FM011700 08008KT 3SM -RA BR OVC007 
     FM012200 07005KT 2SM -DZ BR OVC005 
     FM020500 09003KT 1SM -RADZ BR OVC003